sensor_id;sensor_type;location;lat;lon;timestamp;temperature;humidity
52125;DHT22;38119;52.710;6.398;2023-10-13T00:01:23;16.20;99.90
52125;DHT22;38119;52.710;6.398;2023-10-13T00:03:52;16.60;99.90
52125;DHT22;38119;52.710;6.398;2023-10-13T00:06:19;16.20;99.90
52125;DHT22;38119;52.710;6.398;2023-10-13T00:08:49;16.20;99.90
52125;DHT22;38119;52.710;6.398;2023-10-13T00:11:16;16.20;99.90
52125;DHT22;38119;52.710;6.398;2023-10-13T00:13:43;16.20;99.90
52125;DHT22;38119;52.710;6.398;2023-10-13T00:16:16;16.30;99.90
52125;DHT22;38119;52.710;6.398;2023-10-13T00:18:43;16.80;99.90
52125;DHT22;38119;52.710;6.398;2023-10-13T00:21:10;16.30;99.90
52125;DHT22;38119;52.710;6.398;2023-10-13T00:23:44;16.90;99.90
52125;DHT22;38119;52.710;6.398;2023-10-13T00:26:23;16.30;99.90
52125;DHT22;38119;52.710;6.398;2023-10-13T00:29:09;16.20;99.90
52125;DHT22;38119;52.710;6.398;2023-10-13T00:31:45;16.80;99.90
52125;DHT22;38119;52.710;6.398;2023-10-13T00:34:13;16.30;99.90
52125;DHT22;38119;52.710;6.398;2023-10-13T00:36:52;16.30;99.90
52125;DHT22;38119;52.710;6.398;2023-10-13T00:39:41;16.30;99.90
52125;DHT22;38119;52.710;6.398;2023-10-13T00:42:13;16.30;99.90
52125;DHT22;38119;52.710;6.398;2023-10-13T00:44:52;16.30;99.90
52125;DHT22;38119;52.710;6.398;2023-10-13T00:47:21;16.70;99.90
52125;DHT22;38119;52.710;6.398;2023-10-13T00:50:02;16.30;99.90
52125;DHT22;38119;52.710;6.398;2023-10-13T00:52:29;16.30;99.90
52125;DHT22;38119;52.710;6.398;2023-10-13T00:54:56;16.20;99.90
52125;DHT22;38119;52.710;6.398;2023-10-13T00:57:26;16.30;99.90
52125;DHT22;38119;52.710;6.398;2023-10-13T00:59:53;16.40;99.90
52125;DHT22;38119;52.710;6.398;2023-10-13T01:02:20;16.60;99.90
52125;DHT22;38119;52.710;6.398;2023-10-13T01:05:05;16.30;99.90
52125;DHT22;38119;52.710;6.398;2023-10-13T01:07:35;16.30;99.90
52125;DHT22;38119;52.710;6.398;2023-10-13T01:10:09;16.40;99.90
52125;DHT22;38119;52.710;6.398;2023-10-13T01:12:40;16.40;99.90
52125;DHT22;38119;52.710;6.398;2023-10-13T01:15:13;16.50;99.90
52125;DHT22;38119;52.710;6.398;2023-10-13T01:17:43;16.40;99.90
52125;DHT22;38119;52.710;6.398;2023-10-13T01:20:10;16.40;99.90
52125;DHT22;38119;52.710;6.398;2023-10-13T01:22:39;16.40;99.90
52125;DHT22;38119;52.710;6.398;2023-10-13T01:25:06;16.40;99.90
52125;DHT22;38119;52.710;6.398;2023-10-13T01:27:40;16.40;99.90
52125;DHT22;38119;52.710;6.398;2023-10-13T01:30:06;16.40;99.90
52125;DHT22;38119;52.710;6.398;2023-10-13T01:32:36;16.40;99.90
52125;DHT22;38119;52.710;6.398;2023-10-13T01:35:10;16.40;99.90
52125;DHT22;38119;52.710;6.398;2023-10-13T01:37:35;16.40;99.90
52125;DHT22;38119;52.710;6.398;2023-10-13T01:40:01;15.60;99.90
52125;DHT22;38119;52.710;6.398;2023-10-13T01:42:27;16.40;99.90
52125;DHT22;38119;52.710;6.398;2023-10-13T01:44:56;16.80;99.90
52125;DHT22;38119;52.710;6.398;2023-10-13T01:47:32;16.40;99.90
52125;DHT22;38119;52.710;6.398;2023-10-13T01:50:04;16.40;99.90
52125;DHT22;38119;52.710;6.398;2023-10-13T01:52:52;16.40;99.90
52125;DHT22;38119;52.710;6.398;2023-10-13T01:55:30;16.40;99.90
52125;DHT22;38119;52.710;6.398;2023-10-13T01:57:59;16.40;99.90
52125;DHT22;38119;52.710;6.398;2023-10-13T02:00:27;16.40;99.90
52125;DHT22;38119;52.710;6.398;2023-10-13T02:02:56;16.40;99.90
52125;DHT22;38119;52.710;6.398;2023-10-13T02:05:26;16.40;99.90
52125;DHT22;38119;52.710;6.398;2023-10-13T02:07:58;16.40;99.90
52125;DHT22;38119;52.710;6.398;2023-10-13T02:10:33;16.40;99.90
52125;DHT22;38119;52.710;6.398;2023-10-13T02:12:58;16.80;99.90
52125;DHT22;38119;52.710;6.398;2023-10-13T02:15:24;16.40;99.90
52125;DHT22;38119;52.710;6.398;2023-10-13T02:17:52;16.70;99.90
52125;DHT22;38119;52.710;6.398;2023-10-13T02:20:20;16.40;99.90
52125;DHT22;38119;52.710;6.398;2023-10-13T02:22:48;16.40;99.90
52125;DHT22;38119;52.710;6.398;2023-10-13T02:25:19;16.40;99.90
52125;DHT22;38119;52.710;6.398;2023-10-13T02:28:03;16.40;99.90
52125;DHT22;38119;52.710;6.398;2023-10-13T02:30:37;16.40;99.90
52125;DHT22;38119;52.710;6.398;2023-10-13T02:33:03;16.40;99.90
52125;DHT22;38119;52.710;6.398;2023-10-13T02:35:32;16.40;99.90
52125;DHT22;38119;52.710;6.398;2023-10-13T02:38:07;16.80;99.90
52125;DHT22;38119;52.710;6.398;2023-10-13T02:40:38;16.60;99.90
52125;DHT22;38119;52.710;6.398;2023-10-13T02:43:04;16.60;99.90
52125;DHT22;38119;52.710;6.398;2023-10-13T02:45:32;16.30;99.90
52125;DHT22;38119;52.710;6.398;2023-10-13T02:48:03;16.40;99.90
52125;DHT22;38119;52.710;6.398;2023-10-13T02:50:42;16.40;99.90
52125;DHT22;38119;52.710;6.398;2023-10-13T02:53:11;16.60;99.90
52125;DHT22;38119;52.710;6.398;2023-10-13T02:55:53;16.70;99.90
52125;DHT22;38119;52.710;6.398;2023-10-13T02:58:21;16.40;99.90
52125;DHT22;38119;52.710;6.398;2023-10-13T03:00:47;16.50;99.90
52125;DHT22;38119;52.710;6.398;2023-10-13T03:03:12;16.40;99.90
52125;DHT22;38119;52.710;6.398;2023-10-13T03:05:44;16.40;99.90
52125;DHT22;38119;52.710;6.398;2023-10-13T03:08:09;16.40;99.90
52125;DHT22;38119;52.710;6.398;2023-10-13T03:10:36;16.20;99.90
52125;DHT22;38119;52.710;6.398;2023-10-13T03:13:06;16.30;99.90
52125;DHT22;38119;52.710;6.398;2023-10-13T03:15:35;16.40;99.90
52125;DHT22;38119;52.710;6.398;2023-10-13T03:18:04;16.40;99.90
52125;DHT22;38119;52.710;6.398;2023-10-13T03:20:29;16.40;99.90
52125;DHT22;38119;52.710;6.398;2023-10-13T03:22:59;16.40;99.90
52125;DHT22;38119;52.710;6.398;2023-10-13T03:25:25;16.80;99.90
52125;DHT22;38119;52.710;6.398;2023-10-13T03:27:54;16.40;99.90
52125;DHT22;38119;52.710;6.398;2023-10-13T03:30:20;16.50;99.90
52125;DHT22;38119;52.710;6.398;2023-10-13T03:32:54;16.30;99.90
52125;DHT22;38119;52.710;6.398;2023-10-13T03:35:20;16.40;99.90
52125;DHT22;38119;52.710;6.398;2023-10-13T03:37:55;16.80;99.90
52125;DHT22;38119;52.710;6.398;2023-10-13T03:40:21;16.80;99.90
52125;DHT22;38119;52.710;6.398;2023-10-13T03:42:51;16.30;99.90
52125;DHT22;38119;52.710;6.398;2023-10-13T03:45:42;16.40;99.90
52125;DHT22;38119;52.710;6.398;2023-10-13T03:48:12;16.40;99.90
52125;DHT22;38119;52.710;6.398;2023-10-13T03:50:57;16.30;99.90
52125;DHT22;38119;52.710;6.398;2023-10-13T03:53:33;16.40;99.90
52125;DHT22;38119;52.710;6.398;2023-10-13T03:56:06;16.50;99.90
52125;DHT22;38119;52.710;6.398;2023-10-13T03:58:41;16.30;99.90
52125;DHT22;38119;52.710;6.398;2023-10-13T04:01:14;16.40;99.90
52125;DHT22;38119;52.710;6.398;2023-10-13T04:03:42;17.30;99.90
52125;DHT22;38119;52.710;6.398;2023-10-13T04:06:24;17.00;99.90
52125;DHT22;38119;52.710;6.398;2023-10-13T04:09:22;16.30;99.90
52125;DHT22;38119;52.710;6.398;2023-10-13T04:12:06;16.30;99.90
52125;DHT22;38119;52.710;6.398;2023-10-13T04:14:53;16.30;99.90
52125;DHT22;38119;52.710;6.398;2023-10-13T04:17:28;16.30;99.90
52125;DHT22;38119;52.710;6.398;2023-10-13T04:20:01;16.80;99.90
52125;DHT22;38119;52.710;6.398;2023-10-13T04:22:40;16.30;99.90
52125;DHT22;38119;52.710;6.398;2023-10-13T04:25:18;16.30;99.90
52125;DHT22;38119;52.710;6.398;2023-10-13T04:28:10;16.30;99.90
52125;DHT22;38119;52.710;6.398;2023-10-13T04:33:31;16.30;99.90
52125;DHT22;38119;52.710;6.398;2023-10-13T04:36:14;16.30;99.90
52125;DHT22;38119;52.710;6.398;2023-10-13T04:38:43;16.40;99.90
52125;DHT22;38119;52.710;6.398;2023-10-13T04:41:27;16.30;99.90
52125;DHT22;38119;52.710;6.398;2023-10-13T04:44:13;16.30;99.90
52125;DHT22;38119;52.710;6.398;2023-10-13T04:46:49;16.20;99.90
52125;DHT22;38119;52.710;6.398;2023-10-13T04:49:16;16.20;99.90
52125;DHT22;38119;52.710;6.398;2023-10-13T04:51:58;16.20;99.90
52125;DHT22;38119;52.710;6.398;2023-10-13T04:54:28;16.20;99.90
52125;DHT22;38119;52.710;6.398;2023-10-13T04:57:11;16.20;99.90
52125;DHT22;38119;52.710;6.398;2023-10-13T04:59:59;16.20;99.90
52125;DHT22;38119;52.710;6.398;2023-10-13T05:02:39;16.20;99.90
52125;DHT22;38119;52.710;6.398;2023-10-13T05:05:13;16.40;99.90
52125;DHT22;38119;52.710;6.398;2023-10-13T05:07:40;16.30;99.90
52125;DHT22;38119;52.710;6.398;2023-10-13T05:10:25;16.20;99.90
52125;DHT22;38119;52.710;6.398;2023-10-13T05:13:09;16.20;99.90
52125;DHT22;38119;52.710;6.398;2023-10-13T05:15:53;16.20;99.90
52125;DHT22;38119;52.710;6.398;2023-10-13T05:18:38;16.20;99.90
52125;DHT22;38119;52.710;6.398;2023-10-13T05:21:22;16.10;99.90
52125;DHT22;38119;52.710;6.398;2023-10-13T05:24:06;16.20;99.90
52125;DHT22;38119;52.710;6.398;2023-10-13T05:26:51;16.20;99.90
52125;DHT22;38119;52.710;6.398;2023-10-13T05:29:42;16.20;99.90
52125;DHT22;38119;52.710;6.398;2023-10-13T05:32:26;16.20;99.90
52125;DHT22;38119;52.710;6.398;2023-10-13T05:35:12;16.30;99.90
52125;DHT22;38119;52.710;6.398;2023-10-13T05:37:56;16.20;99.90
52125;DHT22;38119;52.710;6.398;2023-10-13T05:40:57;16.20;99.90
52125;DHT22;38119;52.710;6.398;2023-10-13T05:43:42;16.20;99.90
52125;DHT22;38119;52.710;6.398;2023-10-13T05:46:26;16.20;99.90
52125;DHT22;38119;52.710;6.398;2023-10-13T05:48:56;16.20;99.90
52125;DHT22;38119;52.710;6.398;2023-10-13T05:54:10;16.20;99.90
52125;DHT22;38119;52.710;6.398;2023-10-13T05:59:32;16.20;99.90
52125;DHT22;38119;52.710;6.398;2023-10-13T06:02:19;16.30;99.90
52125;DHT22;38119;52.710;6.398;2023-10-13T06:05:07;16.20;99.90
52125;DHT22;38119;52.710;6.398;2023-10-13T06:08:12;16.20;99.90
52125;DHT22;38119;52.710;6.398;2023-10-13T06:11:03;16.20;99.90
52125;DHT22;38119;52.710;6.398;2023-10-13T06:13:48;16.50;99.90
52125;DHT22;38119;52.710;6.398;2023-10-13T06:16:32;16.20;99.90
52125;DHT22;38119;52.710;6.398;2023-10-13T06:19:17;16.20;99.90
52125;DHT22;38119;52.710;6.398;2023-10-13T06:22:01;16.20;99.90
52125;DHT22;38119;52.710;6.398;2023-10-13T06:24:46;16.20;99.90
52125;DHT22;38119;52.710;6.398;2023-10-13T06:27:31;16.20;99.90
52125;DHT22;38119;52.710;6.398;2023-10-13T06:30:15;16.40;99.90
52125;DHT22;38119;52.710;6.398;2023-10-13T06:32:42;16.20;99.90
52125;DHT22;38119;52.710;6.398;2023-10-13T06:35:08;16.20;99.90
52125;DHT22;38119;52.710;6.398;2023-10-13T06:37:34;16.20;99.90
52125;DHT22;38119;52.710;6.398;2023-10-13T06:40:03;16.30;99.90
52125;DHT22;38119;52.710;6.398;2023-10-13T06:42:53;16.30;99.90
52125;DHT22;38119;52.710;6.398;2023-10-13T06:45:20;16.40;99.90
52125;DHT22;38119;52.710;6.398;2023-10-13T06:47:47;16.40;99.90
52125;DHT22;38119;52.710;6.398;2023-10-13T06:50:18;16.40;99.90
52125;DHT22;38119;52.710;6.398;2023-10-13T06:52:50;16.10;99.90
52125;DHT22;38119;52.710;6.398;2023-10-13T06:55:16;16.40;99.90
52125;DHT22;38119;52.710;6.398;2023-10-13T06:57:43;16.50;99.90
52125;DHT22;38119;52.710;6.398;2023-10-13T07:00:11;16.60;99.90
52125;DHT22;38119;52.710;6.398;2023-10-13T07:02:53;16.50;99.90
52125;DHT22;38119;52.710;6.398;2023-10-13T07:05:19;16.50;99.90
52125;DHT22;38119;52.710;6.398;2023-10-13T07:07:45;16.50;99.90
52125;DHT22;38119;52.710;6.398;2023-10-13T07:10:11;16.50;99.90
52125;DHT22;38119;52.710;6.398;2023-10-13T07:12:41;16.60;99.90
52125;DHT22;38119;52.710;6.398;2023-10-13T07:15:10;16.60;99.90
52125;DHT22;38119;52.710;6.398;2023-10-13T07:17:45;16.60;99.90
52125;DHT22;38119;52.710;6.398;2023-10-13T07:20:11;16.60;99.90
52125;DHT22;38119;52.710;6.398;2023-10-13T07:22:43;16.60;99.90
52125;DHT22;38119;52.710;6.398;2023-10-13T07:25:23;16.60;99.90
52125;DHT22;38119;52.710;6.398;2023-10-13T07:27:52;16.60;99.90
52125;DHT22;38119;52.710;6.398;2023-10-13T07:30:19;16.60;99.90
52125;DHT22;38119;52.710;6.398;2023-10-13T07:32:52;17.20;99.90
52125;DHT22;38119;52.710;6.398;2023-10-13T07:35:21;16.60;99.90
52125;DHT22;38119;52.710;6.398;2023-10-13T07:37:51;16.70;99.90
52125;DHT22;38119;52.710;6.398;2023-10-13T07:40:21;16.60;99.90
52125;DHT22;38119;52.710;6.398;2023-10-13T07:43:11;16.70;99.90
52125;DHT22;38119;52.710;6.398;2023-10-13T07:45:40;16.70;99.90
52125;DHT22;38119;52.710;6.398;2023-10-13T07:48:08;16.70;99.90
52125;DHT22;38119;52.710;6.398;2023-10-13T07:50:42;16.70;99.90
52125;DHT22;38119;52.710;6.398;2023-10-13T07:53:11;16.70;99.90
52125;DHT22;38119;52.710;6.398;2023-10-13T07:55:49;16.70;99.90
52125;DHT22;38119;52.710;6.398;2023-10-13T07:58:24;16.70;99.90
52125;DHT22;38119;52.710;6.398;2023-10-13T08:00:53;16.70;99.90
52125;DHT22;38119;52.710;6.398;2023-10-13T08:03:41;16.60;99.90
52125;DHT22;38119;52.710;6.398;2023-10-13T08:06:20;16.70;99.90
52125;DHT22;38119;52.710;6.398;2023-10-13T08:08:51;16.70;99.90
52125;DHT22;38119;52.710;6.398;2023-10-13T08:11:23;17.00;99.90
52125;DHT22;38119;52.710;6.398;2023-10-13T08:13:52;16.70;99.90
52125;DHT22;38119;52.710;6.398;2023-10-13T08:16:38;16.70;99.90
52125;DHT22;38119;52.710;6.398;2023-10-13T08:19:17;16.70;99.90
52125;DHT22;38119;52.710;6.398;2023-10-13T08:21:47;16.80;99.90
52125;DHT22;38119;52.710;6.398;2023-10-13T08:24:28;16.80;99.90
52125;DHT22;38119;52.710;6.398;2023-10-13T08:27:03;16.80;99.90
52125;DHT22;38119;52.710;6.398;2023-10-13T08:29:28;16.80;99.90
52125;DHT22;38119;52.710;6.398;2023-10-13T08:31:54;16.80;99.90
52125;DHT22;38119;52.710;6.398;2023-10-13T08:34:33;16.80;99.90
52125;DHT22;38119;52.710;6.398;2023-10-13T08:37:30;16.90;99.90
52125;DHT22;38119;52.710;6.398;2023-10-13T08:39:59;16.90;99.90
52125;DHT22;38119;52.710;6.398;2023-10-13T08:42:30;17.00;99.90
52125;DHT22;38119;52.710;6.398;2023-10-13T08:45:23;17.10;99.90
52125;DHT22;38119;52.710;6.398;2023-10-13T08:48:09;17.10;99.90
52125;DHT22;38119;52.710;6.398;2023-10-13T08:50:41;17.20;99.90
52125;DHT22;38119;52.710;6.398;2023-10-13T08:53:31;17.30;99.90
52125;DHT22;38119;52.710;6.398;2023-10-13T08:56:04;17.30;99.90
52125;DHT22;38119;52.710;6.398;2023-10-13T08:58:40;17.40;99.90
52125;DHT22;38119;52.710;6.398;2023-10-13T09:01:23;17.40;99.90
52125;DHT22;38119;52.710;6.398;2023-10-13T09:06:51;17.50;99.90
52125;DHT22;38119;52.710;6.398;2023-10-13T09:09:26;17.60;99.90
52125;DHT22;38119;52.710;6.398;2023-10-13T09:11:55;17.70;99.90
52125;DHT22;38119;52.710;6.398;2023-10-13T09:14:42;17.80;99.90
52125;DHT22;38119;52.710;6.398;2023-10-13T09:17:13;17.80;99.90
52125;DHT22;38119;52.710;6.398;2023-10-13T09:19:52;17.90;99.90
52125;DHT22;38119;52.710;6.398;2023-10-13T09:22:26;17.90;99.90
52125;DHT22;38119;52.710;6.398;2023-10-13T09:24:58;18.00;99.90
52125;DHT22;38119;52.710;6.398;2023-10-13T09:27:30;18.00;99.90
52125;DHT22;38119;52.710;6.398;2023-10-13T09:30:02;18.00;99.90
52125;DHT22;38119;52.710;6.398;2023-10-13T09:33:02;18.00;99.90
52125;DHT22;38119;52.710;6.398;2023-10-13T09:35:30;18.00;99.90
52125;DHT22;38119;52.710;6.398;2023-10-13T09:38:00;18.30;99.90
52125;DHT22;38119;52.710;6.398;2023-10-13T09:40:28;18.00;99.90
52125;DHT22;38119;52.710;6.398;2023-10-13T09:43:04;18.00;99.90
52125;DHT22;38119;52.710;6.398;2023-10-13T09:45:35;18.00;99.90
52125;DHT22;38119;52.710;6.398;2023-10-13T09:48:10;18.00;99.90
52125;DHT22;38119;52.710;6.398;2023-10-13T09:50:44;18.90;99.90
52125;DHT22;38119;52.710;6.398;2023-10-13T09:53:11;18.00;99.90
52125;DHT22;38119;52.710;6.398;2023-10-13T09:55:44;18.10;99.90
52125;DHT22;38119;52.710;6.398;2023-10-13T09:58:11;18.10;99.90
52125;DHT22;38119;52.710;6.398;2023-10-13T10:00:47;18.10;99.90
52125;DHT22;38119;52.710;6.398;2023-10-13T10:03:15;18.00;99.90
52125;DHT22;38119;52.710;6.398;2023-10-13T10:06:23;18.20;99.90
52125;DHT22;38119;52.710;6.398;2023-10-13T10:09:08;18.20;99.90
52125;DHT22;38119;52.710;6.398;2023-10-13T10:12:01;18.30;99.90
52125;DHT22;38119;52.710;6.398;2023-10-13T10:17:41;18.40;99.90
52125;DHT22;38119;52.710;6.398;2023-10-13T10:20:08;18.40;99.90
52125;DHT22;38119;52.710;6.398;2023-10-13T10:22:59;18.40;99.90
52125;DHT22;38119;52.710;6.398;2023-10-13T10:25:29;18.40;99.90
52125;DHT22;38119;52.710;6.398;2023-10-13T10:27:56;18.70;99.90
52125;DHT22;38119;52.710;6.398;2023-10-13T10:30:27;18.40;99.90
52125;DHT22;38119;52.710;6.398;2023-10-13T10:32:57;18.50;99.90
52125;DHT22;38119;52.710;6.398;2023-10-13T10:35:27;18.50;99.90
52125;DHT22;38119;52.710;6.398;2023-10-13T10:38:07;18.50;99.90
52125;DHT22;38119;52.710;6.398;2023-10-13T10:40:51;18.50;99.90
52125;DHT22;38119;52.710;6.398;2023-10-13T10:43:28;18.50;99.90
52125;DHT22;38119;52.710;6.398;2023-10-13T10:46:12;18.60;99.90
52125;DHT22;38119;52.710;6.398;2023-10-13T10:48:38;18.50;99.90
52125;DHT22;38119;52.710;6.398;2023-10-13T10:51:09;18.90;99.90
52125;DHT22;38119;52.710;6.398;2023-10-13T10:53:47;18.50;99.90
52125;DHT22;38119;52.710;6.398;2023-10-13T10:56:15;18.60;99.90
52125;DHT22;38119;52.710;6.398;2023-10-13T10:58:59;18.70;99.90
52125;DHT22;38119;52.710;6.398;2023-10-13T11:01:27;18.60;99.90
52125;DHT22;38119;52.710;6.398;2023-10-13T11:04:17;18.60;99.90
52125;DHT22;38119;52.710;6.398;2023-10-13T11:06:59;18.90;99.90
52125;DHT22;38119;52.710;6.398;2023-10-13T11:09:32;18.70;99.90
52125;DHT22;38119;52.710;6.398;2023-10-13T11:12:19;18.70;99.90
52125;DHT22;38119;52.710;6.398;2023-10-13T11:14:48;18.70;99.90
52125;DHT22;38119;52.710;6.398;2023-10-13T11:17:20;18.70;99.90
52125;DHT22;38119;52.710;6.398;2023-10-13T11:20:13;19.20;99.90
52125;DHT22;38119;52.710;6.398;2023-10-13T11:22:49;18.80;99.90
52125;DHT22;38119;52.710;6.398;2023-10-13T11:25:26;18.80;99.90
52125;DHT22;38119;52.710;6.398;2023-10-13T11:27:56;18.80;99.90
52125;DHT22;38119;52.710;6.398;2023-10-13T11:30:22;18.90;99.90
52125;DHT22;38119;52.710;6.398;2023-10-13T11:33:02;19.00;99.90
52125;DHT22;38119;52.710;6.398;2023-10-13T11:35:35;19.10;99.90
52125;DHT22;38119;52.710;6.398;2023-10-13T11:38:36;19.20;99.90
52125;DHT22;38119;52.710;6.398;2023-10-13T11:41:15;19.30;99.90
52125;DHT22;38119;52.710;6.398;2023-10-13T11:43:46;19.30;99.90
52125;DHT22;38119;52.710;6.398;2023-10-13T11:46:19;19.30;99.90
52125;DHT22;38119;52.710;6.398;2023-10-13T11:49:05;19.30;99.90
52125;DHT22;38119;52.710;6.398;2023-10-13T11:51:48;19.30;99.90
52125;DHT22;38119;52.710;6.398;2023-10-13T11:54:17;19.30;99.90
52125;DHT22;38119;52.710;6.398;2023-10-13T11:56:44;19.30;99.90
52125;DHT22;38119;52.710;6.398;2023-10-13T11:59:10;19.10;99.90
52125;DHT22;38119;52.710;6.398;2023-10-13T12:01:49;19.20;99.90
52125;DHT22;38119;52.710;6.398;2023-10-13T12:04:33;19.20;99.90
52125;DHT22;38119;52.710;6.398;2023-10-13T12:07:07;19.20;99.90
52125;DHT22;38119;52.710;6.398;2023-10-13T12:09:46;19.20;99.90
52125;DHT22;38119;52.710;6.398;2023-10-13T12:12:30;19.30;99.90
52125;DHT22;38119;52.710;6.398;2023-10-13T12:14:56;19.20;99.90
52125;DHT22;38119;52.710;6.398;2023-10-13T12:17:25;19.30;99.90
52125;DHT22;38119;52.710;6.398;2023-10-13T12:19:54;19.30;99.90
52125;DHT22;38119;52.710;6.398;2023-10-13T12:22:20;19.30;99.90
52125;DHT22;38119;52.710;6.398;2023-10-13T12:25:01;19.30;99.90
52125;DHT22;38119;52.710;6.398;2023-10-13T12:27:31;19.20;99.90
52125;DHT22;38119;52.710;6.398;2023-10-13T12:30:12;19.40;99.90
52125;DHT22;38119;52.710;6.398;2023-10-13T12:32:40;19.30;99.90
52125;DHT22;38119;52.710;6.398;2023-10-13T12:35:10;19.40;99.90
52125;DHT22;38119;52.710;6.398;2023-10-13T12:37:36;19.30;99.90
52125;DHT22;38119;52.710;6.398;2023-10-13T12:40:15;19.50;99.90
52125;DHT22;38119;52.710;6.398;2023-10-13T12:42:59;19.50;99.90
52125;DHT22;38119;52.710;6.398;2023-10-13T12:45:45;19.60;99.90
52125;DHT22;38119;52.710;6.398;2023-10-13T12:48:30;19.60;99.90
52125;DHT22;38119;52.710;6.398;2023-10-13T12:51:15;19.70;99.90
52125;DHT22;38119;52.710;6.398;2023-10-13T12:53:57;19.60;99.90
52125;DHT22;38119;52.710;6.398;2023-10-13T12:56:45;20.20;99.90
52125;DHT22;38119;52.710;6.398;2023-10-13T12:59:10;19.70;99.90
52125;DHT22;38119;52.710;6.398;2023-10-13T13:01:39;19.60;99.90
52125;DHT22;38119;52.710;6.398;2023-10-13T13:04:11;19.80;99.90
52125;DHT22;38119;52.710;6.398;2023-10-13T13:06:50;19.90;99.90
52125;DHT22;38119;52.710;6.398;2023-10-13T13:09:16;20.40;99.90
52125;DHT22;38119;52.710;6.398;2023-10-13T13:11:54;20.40;99.90
52125;DHT22;38119;52.710;6.398;2023-10-13T13:14:26;19.90;99.90
52125;DHT22;38119;52.710;6.398;2023-10-13T13:16:57;20.30;99.90
52125;DHT22;38119;52.710;6.398;2023-10-13T13:19:36;19.90;99.90
52125;DHT22;38119;52.710;6.398;2023-10-13T13:22:06;20.00;99.90
52125;DHT22;38119;52.710;6.398;2023-10-13T13:24:42;20.00;99.90
52125;DHT22;38119;52.710;6.398;2023-10-13T13:27:11;20.00;99.90
52125;DHT22;38119;52.710;6.398;2023-10-13T13:29:42;20.00;99.90
52125;DHT22;38119;52.710;6.398;2023-10-13T13:32:08;20.10;99.90
52125;DHT22;38119;52.710;6.398;2023-10-13T13:34:47;19.90;99.90
52125;DHT22;38119;52.710;6.398;2023-10-13T13:37:33;19.90;99.90
52125;DHT22;38119;52.710;6.398;2023-10-13T13:40:00;19.90;99.90
52125;DHT22;38119;52.710;6.398;2023-10-13T13:42:42;19.30;99.90
52125;DHT22;38119;52.710;6.398;2023-10-13T13:45:15;19.70;99.90
52125;DHT22;38119;52.710;6.398;2023-10-13T13:47:48;19.60;99.90
52125;DHT22;38119;52.710;6.398;2023-10-13T13:50:22;19.40;99.90
52125;DHT22;38119;52.710;6.398;2023-10-13T13:52:56;19.30;99.90
52125;DHT22;38119;52.710;6.398;2023-10-13T13:55:23;19.20;99.90
52125;DHT22;38119;52.710;6.398;2023-10-13T13:57:49;19.10;99.90
52125;DHT22;38119;52.710;6.398;2023-10-13T14:00:19;19.30;99.90
52125;DHT22;38119;52.710;6.398;2023-10-13T14:03:03;18.90;99.90
52125;DHT22;38119;52.710;6.398;2023-10-13T14:05:29;18.90;99.90
52125;DHT22;38119;52.710;6.398;2023-10-13T14:07:54;18.80;99.90
52125;DHT22;38119;52.710;6.398;2023-10-13T14:10:20;18.80;99.90
52125;DHT22;38119;52.710;6.398;2023-10-13T14:13:01;18.70;99.90
52125;DHT22;38119;52.710;6.398;2023-10-13T14:15:39;18.70;99.90
52125;DHT22;38119;52.710;6.398;2023-10-13T14:18:11;18.70;99.90
52125;DHT22;38119;52.710;6.398;2023-10-13T14:20:43;18.70;99.90
52125;DHT22;38119;52.710;6.398;2023-10-13T14:23:09;18.70;99.90
52125;DHT22;38119;52.710;6.398;2023-10-13T14:25:38;18.70;99.90
52125;DHT22;38119;52.710;6.398;2023-10-13T14:28:07;18.60;99.90
52125;DHT22;38119;52.710;6.398;2023-10-13T14:30:33;18.60;99.90
52125;DHT22;38119;52.710;6.398;2023-10-13T14:32:58;18.60;99.90
52125;DHT22;38119;52.710;6.398;2023-10-13T14:35:25;19.10;99.90
52125;DHT22;38119;52.710;6.398;2023-10-13T14:37:52;18.60;99.90
52125;DHT22;38119;52.710;6.398;2023-10-13T14:40:17;18.70;99.90
52125;DHT22;38119;52.710;6.398;2023-10-13T14:42:47;18.60;99.90
52125;DHT22;38119;52.710;6.398;2023-10-13T14:45:13;19.00;99.90
52125;DHT22;38119;52.710;6.398;2023-10-13T14:47:42;18.60;99.90
52125;DHT22;38119;52.710;6.398;2023-10-13T14:50:09;18.80;99.90
52125;DHT22;38119;52.710;6.398;2023-10-13T14:52:42;18.60;99.90
52125;DHT22;38119;52.710;6.398;2023-10-13T14:55:09;18.90;99.90
52125;DHT22;38119;52.710;6.398;2023-10-13T14:57:45;18.90;99.90
52125;DHT22;38119;52.710;6.398;2023-10-13T15:00:12;18.60;99.90
52125;DHT22;38119;52.710;6.398;2023-10-13T15:02:40;18.50;99.90
52125;DHT22;38119;52.710;6.398;2023-10-13T15:05:11;18.60;99.90
52125;DHT22;38119;52.710;6.398;2023-10-13T15:07:42;18.40;99.90
52125;DHT22;38119;52.710;6.398;2023-10-13T15:10:12;18.40;99.90
52125;DHT22;38119;52.710;6.398;2023-10-13T15:12:41;18.70;99.90
52125;DHT22;38119;52.710;6.398;2023-10-13T15:15:07;18.40;99.90
52125;DHT22;38119;52.710;6.398;2023-10-13T15:17:44;18.20;99.90
52125;DHT22;38119;52.710;6.398;2023-10-13T15:20:11;18.20;99.90
52125;DHT22;38119;52.710;6.398;2023-10-13T15:22:42;18.20;99.90
52125;DHT22;38119;52.710;6.398;2023-10-13T15:25:08;18.20;99.90
52125;DHT22;38119;52.710;6.398;2023-10-13T15:27:47;18.10;99.90
52125;DHT22;38119;52.710;6.398;2023-10-13T15:30:22;18.00;99.90
52125;DHT22;38119;52.710;6.398;2023-10-13T15:32:49;18.10;99.90
52125;DHT22;38119;52.710;6.398;2023-10-13T15:35:16;18.00;99.90
52125;DHT22;38119;52.710;6.398;2023-10-13T15:37:42;18.00;99.90
52125;DHT22;38119;52.710;6.398;2023-10-13T15:40:13;18.00;99.90
52125;DHT22;38119;52.710;6.398;2023-10-13T15:42:42;18.00;99.90
52125;DHT22;38119;52.710;6.398;2023-10-13T15:45:08;18.00;99.90
52125;DHT22;38119;52.710;6.398;2023-10-13T15:47:46;18.00;99.90
52125;DHT22;38119;52.710;6.398;2023-10-13T15:50:13;18.20;99.90
52125;DHT22;38119;52.710;6.398;2023-10-13T15:52:41;17.90;99.90
52125;DHT22;38119;52.710;6.398;2023-10-13T15:55:14;18.00;99.90
52125;DHT22;38119;52.710;6.398;2023-10-13T15:57:41;18.00;99.90
52125;DHT22;38119;52.710;6.398;2023-10-13T16:00:11;18.60;99.90
52125;DHT22;38119;52.710;6.398;2023-10-13T16:02:54;17.90;99.90
52125;DHT22;38119;52.710;6.398;2023-10-13T16:05:21;17.90;99.90
52125;DHT22;38119;52.710;6.398;2023-10-13T16:07:51;18.20;99.90
52125;DHT22;38119;52.710;6.398;2023-10-13T16:10:20;17.90;99.90
52125;DHT22;38119;52.710;6.398;2023-10-13T16:12:46;18.50;99.90
52125;DHT22;38119;52.710;6.398;2023-10-13T16:15:12;18.50;99.90
52125;DHT22;38119;52.710;6.398;2023-10-13T16:17:42;17.80;99.90
52125;DHT22;38119;52.710;6.398;2023-10-13T16:20:09;17.80;99.90
52125;DHT22;38119;52.710;6.398;2023-10-13T16:22:45;17.90;99.90
52125;DHT22;38119;52.710;6.398;2023-10-13T16:25:15;18.00;99.90
52125;DHT22;38119;52.710;6.398;2023-10-13T16:27:42;17.80;99.90